createdAt,value
2022-08-03T00:01:43.119Z,98292.16
2022-08-03T00:04:11.303Z,98296.44
2022-08-03T00:06:39.133Z,98290.78
2022-08-03T00:09:08.155Z,98292.59
2022-08-03T00:11:37.161Z,98286.63
2022-08-03T00:14:07.984Z,98298.06
2022-08-03T00:16:36.106Z,98294.91
2022-08-03T00:19:04.378Z,98285.47
2022-08-03T00:21:31.834Z,98286.59
2022-08-03T00:23:59.107Z,98293.06
2022-08-03T00:26:26.351Z,98288.09
2022-08-03T00:28:53.854Z,98290.56
2022-08-03T00:31:27.759Z,98296.69
2022-08-03T00:34:08.570Z,98291.25
2022-08-03T00:36:35.791Z,98284.44
2022-08-03T00:39:03.107Z,98289.03
2022-08-03T00:41:30.630Z,98287.38
2022-08-03T00:43:57.851Z,98296.63
2022-08-03T00:46:25.067Z,98290.94
2022-08-03T00:48:53.446Z,98290.44
2022-08-03T00:51:22.355Z,98294.25
2022-08-03T00:53:51.039Z,98299.84
2022-08-03T00:56:18.909Z,98294.88
2022-08-03T00:58:47.585Z,98286.41
2022-08-03T01:01:15.407Z,98293.53
2022-08-03T01:03:43.150Z,98293.69
2022-08-03T01:06:23.147Z,98291.47
2022-08-03T01:09:04.717Z,98294.13
2022-08-03T01:11:59.819Z,98290.47
2022-08-03T01:14:46.041Z,98293.63
2022-08-03T01:17:49.144Z,98296.56
2022-08-03T01:20:20.928Z,98303.38
2022-08-03T01:23:28.991Z,98300.66
2022-08-03T01:26:20.672Z,98299.84
2022-08-03T01:29:37.992Z,98294.00
2022-08-03T01:33:02.785Z,98298.47
2022-08-03T01:35:29.409Z,98299.94
2022-08-03T01:38:04.765Z,98293.78
2022-08-03T01:40:39.606Z,98296.59
2022-08-03T01:43:12.899Z,98291.09
2022-08-03T01:45:44.023Z,98296.41
2022-08-03T01:48:17.720Z,98289.75
2022-08-03T01:50:47.834Z,98289.91
2022-08-03T01:53:17.539Z,98291.72
2022-08-03T01:55:54.167Z,98297.31
2022-08-03T01:58:24.669Z,98291.16
2022-08-03T02:00:58.279Z,98284.22
2022-08-03T02:03:28.977Z,98284.22
2022-08-03T02:07:00.215Z,98278.41
2022-08-03T02:08:49.390Z,98285.69
2022-08-03T02:11:17.163Z,98277.59
2022-08-03T02:13:47.262Z,98280.38
2022-08-03T02:16:15.015Z,98285.53
2022-08-03T02:18:43.414Z,98286.19
2022-08-03T02:21:12.249Z,98278.25
2022-08-03T02:24:00.042Z,98276.75
2022-08-03T02:26:31.013Z,98286.50
2022-08-03T02:29:19.051Z,98275.09
2022-08-03T02:31:49.352Z,98284.94
2022-08-03T02:34:21.189Z,98279.19
2022-08-03T02:36:53.800Z,98278.19
2022-08-03T02:39:26.395Z,98273.44
2022-08-03T02:42:02.319Z,98275.94
2022-08-03T02:44:33.709Z,98283.47
2022-08-03T02:47:11.022Z,98278.13
2022-08-03T02:49:51.472Z,98287.72
2022-08-03T02:52:25.530Z,98283.13
2022-08-03T02:54:57.848Z,98286.75
2022-08-03T02:57:29.933Z,98286.06
2022-08-03T03:00:00.179Z,98288.53
2022-08-03T03:02:30.062Z,98289.41
2022-08-03T03:05:52.448Z,98292.88
2022-08-03T03:07:52.061Z,98292.19
2022-08-03T03:10:24.938Z,98295.97
2022-08-03T03:12:58.539Z,98294.31
2022-08-03T03:15:29.207Z,98296.72
2022-08-03T03:17:58.206Z,98293.25
2022-08-03T03:20:30.186Z,98298.38
2022-08-03T03:23:02.741Z,98296.19
2022-08-03T03:25:34.463Z,98293.16
2022-08-03T03:28:03.043Z,98295.97
2022-08-03T03:30:30.956Z,98297.63
2022-08-03T03:32:59.676Z,98302.09
2022-08-03T03:35:28.303Z,98300.00
2022-08-03T03:37:56.769Z,98299.53
2022-08-03T03:40:25.030Z,98298.94
2022-08-03T03:42:52.649Z,98299.22
2022-08-03T03:45:21.803Z,98305.06
2022-08-03T03:47:49.598Z,98305.34
2022-08-03T03:50:19.542Z,98306.41
2022-08-03T03:52:46.991Z,98303.16
2022-08-03T03:55:19.341Z,98315.78
2022-08-03T03:57:46.743Z,98312.34
2022-08-03T04:00:16.924Z,98322.34
2022-08-03T04:02:45.958Z,98322.88
2022-08-03T04:05:34.201Z,98322.72
2022-08-03T04:08:25.272Z,98325.03
2022-08-03T04:11:29.368Z,98331.66
2022-08-03T04:14:13.315Z,98332.84
2022-08-03T04:16:49.205Z,98320.97
2022-08-03T04:19:26.978Z,98324.94
2022-08-03T04:22:00.944Z,98327.97
2022-08-03T04:24:48.325Z,98322.38
2022-08-03T04:27:22.017Z,98332.63
2022-08-03T04:29:55.085Z,98333.72
2022-08-03T04:32:28.728Z,98332.56
2022-08-03T04:34:56.534Z,98335.59
2022-08-03T04:37:40.158Z,98342.22
2022-08-03T04:40:13.777Z,98344.44
2022-08-03T04:42:43.174Z,98347.28
2022-08-03T04:45:15.067Z,98343.69
2022-08-03T04:47:44.592Z,98348.34
2022-08-03T04:50:15.023Z,98350.22
2022-08-03T04:52:45.269Z,98353.44
2022-08-03T04:55:12.493Z,98345.00
2022-08-03T04:57:39.730Z,98350.19
2022-08-03T05:00:08.045Z,98344.09
2022-08-03T05:02:35.546Z,98341.50
2022-08-03T05:05:09.503Z,98343.31
2022-08-03T05:07:39.215Z,98343.50
2022-08-03T05:10:14.795Z,98350.31
2022-08-03T05:12:45.892Z,98347.66
2022-08-03T05:15:13.675Z,98350.78
2022-08-03T05:17:41.379Z,98351.59
2022-08-03T05:20:10.117Z,98353.59
2022-08-03T05:22:37.478Z,98354.88
2022-08-03T05:25:05.336Z,98347.41
2022-08-03T05:27:32.738Z,98343.72
2022-08-03T05:30:30.671Z,98346.53
2022-08-03T05:32:47.485Z,98346.53
2022-08-03T05:36:00.784Z,98349.84
2022-08-03T05:38:03.533Z,98353.88
2022-08-03T05:40:32.006Z,98350.13
2022-08-03T05:43:00.109Z,98357.75
2022-08-03T05:45:28.522Z,98355.97
2022-08-03T05:47:56.499Z,98361.81
2022-08-03T05:50:24.055Z,98362.34
2022-08-03T05:52:51.534Z,98361.72
2022-08-03T05:55:19.175Z,98359.56
2022-08-03T05:57:47.742Z,98360.56
2022-08-03T06:00:17.509Z,98362.75
2022-08-03T06:02:46.235Z,98360.44
2022-08-03T06:05:13.616Z,98365.06
2022-08-03T06:07:41.137Z,98367.56
2022-08-03T06:10:37.355Z,98368.72
2022-08-03T06:12:56.716Z,98370.38
2022-08-03T06:15:24.006Z,98367.72
2022-08-03T06:18:01.453Z,98364.75
2022-08-03T06:20:30.362Z,98372.03
2022-08-03T06:23:00.419Z,98372.38
2022-08-03T06:25:29.389Z,98373.66
2022-08-03T06:27:57.142Z,98370.63
2022-08-03T06:30:24.783Z,98374.75
2022-08-03T06:32:52.532Z,98380.53
2022-08-03T06:35:20.828Z,98378.47
2022-08-03T06:37:51.880Z,98372.69
2022-08-03T06:40:29.222Z,98377.91
2022-08-03T06:42:58.270Z,98378.75
2022-08-03T06:45:25.933Z,98386.25
2022-08-03T06:48:11.960Z,98395.09
2022-08-03T06:50:41.772Z,98380.84
2022-08-03T06:53:15.627Z,98392.19
2022-08-03T06:55:53.936Z,98390.19
2022-08-03T06:58:22.618Z,98391.88
2022-08-03T07:00:50.255Z,98396.19
2022-08-03T07:03:17.765Z,98392.41
2022-08-03T07:05:48.332Z,98393.25
2022-08-03T07:08:15.929Z,98398.97
2022-08-03T07:10:44.195Z,98393.78
2022-08-03T07:13:11.753Z,98393.19
2022-08-03T07:15:55.684Z,98394.63
2022-08-03T07:18:29.844Z,98384.75
2022-08-03T07:21:00.281Z,98395.41
2022-08-03T07:23:27.660Z,98384.38
2022-08-03T07:25:54.932Z,98381.19
2022-08-03T07:28:22.306Z,98388.69
2022-08-03T07:30:49.847Z,98390.19
2022-08-03T07:33:17.194Z,98390.81
2022-08-03T07:35:44.469Z,98391.75
2022-08-03T07:38:11.916Z,98388.97
2022-08-03T07:40:44.416Z,98391.16
2022-08-03T07:43:13.609Z,98390.03
2022-08-03T07:45:40.979Z,98390.16
2022-08-03T07:48:12.193Z,98388.19
2022-08-03T07:50:41.204Z,98386.63
2022-08-03T07:53:08.828Z,98391.25
2022-08-03T07:55:36.175Z,98394.97
2022-08-03T07:58:12.622Z,98391.72
2022-08-03T08:00:40.008Z,98392.94
2022-08-03T08:03:08.250Z,98387.19
2022-08-03T08:05:35.463Z,98391.28
2022-08-03T08:08:04.212Z,98384.63
2022-08-03T08:10:33.346Z,98393.25
2022-08-03T08:13:01.896Z,98393.25
2022-08-03T08:15:30.294Z,98394.00
2022-08-03T08:18:01.572Z,98393.88
2022-08-03T08:20:34.974Z,98389.63
2022-08-03T08:23:19.248Z,98397.91
2022-08-03T08:25:56.283Z,98395.31
2022-08-03T08:28:32.819Z,98398.56
2022-08-03T08:31:02.486Z,98393.72
2022-08-03T08:33:42.509Z,98400.31
2022-08-03T08:36:18.166Z,98404.59
2022-08-03T08:38:45.713Z,98401.38
2022-08-03T08:41:15.293Z,98407.34
2022-08-03T08:43:43.794Z,98404.28
2022-08-03T08:46:22.947Z,98406.06
2022-08-03T08:48:52.505Z,98405.66
2022-08-03T08:51:22.507Z,98408.53
2022-08-03T08:53:54.287Z,98397.91
2022-08-03T08:56:26.242Z,98402.63
2022-08-03T08:58:59.249Z,98398.34
2022-08-03T09:01:27.756Z,98401.44
2022-08-03T09:03:55.895Z,98401.72
2022-08-03T09:06:24.759Z,98401.22
2022-08-03T09:08:52.610Z,98403.75
2022-08-03T09:11:57.652Z,98408.81
2022-08-03T09:14:37.119Z,98393.53
2022-08-03T09:17:05.308Z,98398.22
2022-08-03T09:19:34.877Z,98402.47
2022-08-03T09:22:16.802Z,98402.84
2022-08-03T09:25:27.198Z,98394.00
2022-08-03T09:27:54.706Z,98387.59
2022-08-03T09:30:34.530Z,98402.72
2022-08-03T09:33:11.245Z,98422.59
2022-08-03T09:35:57.461Z,98432.38
2022-08-03T09:38:28.857Z,98432.81
2022-08-03T09:41:00.244Z,98432.94
2022-08-03T09:43:28.818Z,98425.63
2022-08-03T09:46:07.481Z,98428.44
2022-08-03T09:48:36.921Z,98428.78
2022-08-03T09:51:12.809Z,98423.06
2022-08-03T09:53:58.948Z,98395.31
2022-08-03T09:56:41.707Z,98385.81
2022-08-03T09:59:11.645Z,98363.72
2022-08-03T10:01:41.961Z,98353.38
2022-08-03T10:04:15.141Z,98346.19
2022-08-03T10:06:44.317Z,98367.44
2022-08-03T10:09:17.222Z,98370.56
2022-08-03T10:11:47.041Z,98373.53
2022-08-03T10:14:23.564Z,98384.28
2022-08-03T10:16:50.914Z,98397.22
2022-08-03T10:19:18.421Z,98385.31
2022-08-03T10:21:57.026Z,98388.63
2022-08-03T10:24:29.575Z,98388.66
2022-08-03T10:27:08.063Z,98378.66
2022-08-03T10:29:41.312Z,98362.78
2022-08-03T10:32:22.717Z,98335.06
2022-08-03T10:34:59.874Z,98330.19
2022-08-03T10:37:34.636Z,98348.22
2022-08-03T10:40:04.269Z,98347.44
2022-08-03T10:42:32.101Z,98350.06
2022-08-03T10:45:18.778Z,98347.69
2022-08-03T10:47:49.513Z,98360.56
2022-08-03T10:50:18.346Z,98365.94
2022-08-03T10:52:55.275Z,98336.34
2022-08-03T10:55:59.835Z,98296.50
2022-08-03T10:58:37.962Z,98275.50
2022-08-03T11:01:58.903Z,98267.84
2022-08-03T11:04:30.320Z,98256.53
2022-08-03T11:07:16.900Z,98258.91
2022-08-03T11:09:51.200Z,98265.06
2022-08-03T11:12:30.735Z,98255.06
2022-08-03T11:15:05.095Z,98256.16
2022-08-03T11:17:46.717Z,98253.03
2022-08-03T11:20:52.903Z,98254.91
2022-08-03T11:24:03.338Z,98258.41
2022-08-03T11:26:29.476Z,98253.34
2022-08-03T11:29:32.005Z,98247.13
2022-08-03T11:31:59.290Z,98256.53
2022-08-03T11:34:26.908Z,98247.03
2022-08-03T11:37:22.336Z,98252.56
2022-08-03T11:39:54.591Z,98248.91
2022-08-03T11:42:24.987Z,98240.81
2022-08-03T11:45:00.665Z,98244.69
2022-08-03T11:47:30.284Z,98248.22
2022-08-03T11:50:02.077Z,98241.34
2022-08-03T11:52:38.360Z,98235.63
2022-08-03T11:55:11.812Z,98233.69
2022-08-03T11:59:01.264Z,98231.91
2022-08-03T12:00:32.787Z,98234.06
2022-08-03T12:03:11.280Z,98225.44
2022-08-03T12:05:41.583Z,98229.56
2022-08-03T12:08:41.006Z,98220.94
2022-08-03T12:11:11.739Z,98221.84
2022-08-03T12:14:45.122Z,98219.47
2022-08-03T12:16:31.807Z,98218.41
2022-08-03T12:19:06.805Z,98214.88
2022-08-03T12:21:34.605Z,98218.69
2022-08-03T12:24:05.298Z,98218.16
2022-08-03T12:26:58.518Z,98213.19
2022-08-03T12:29:27.623Z,98222.44
2022-08-03T12:31:55.983Z,98216.19
2022-08-03T12:34:23.702Z,98213.78
2022-08-03T12:36:56.933Z,98214.28
2022-08-03T12:39:26.714Z,98216.50
2022-08-03T12:41:56.462Z,98220.81
2022-08-03T12:44:35.820Z,98206.66
2022-08-03T12:47:06.824Z,98212.16
2022-08-03T12:49:48.444Z,98213.19
2022-08-03T12:52:18.071Z,98205.19
2022-08-03T12:55:00.098Z,98206.47
2022-08-03T12:57:42.171Z,98205.81
2022-08-03T13:00:21.448Z,98213.03
2022-08-03T13:03:38.851Z,98200.25
2022-08-03T13:05:57.556Z,98203.47
2022-08-03T13:08:26.009Z,98210.63
2022-08-03T13:10:53.911Z,98206.09
2022-08-03T13:13:39.648Z,98200.00
2022-08-03T13:16:07.585Z,98201.66
2022-08-03T13:18:34.788Z,98201.19
2022-08-03T13:21:02.324Z,98198.50
2022-08-03T13:23:30.013Z,98201.75
2022-08-03T13:25:57.205Z,98197.69
2022-08-03T13:28:24.454Z,98196.31
2022-08-03T13:30:51.982Z,98202.84
2022-08-03T13:33:19.349Z,98194.13
2022-08-03T13:35:46.607Z,98196.88
2022-08-03T13:38:15.356Z,98196.59
2022-08-03T13:40:44.560Z,98193.00
2022-08-03T13:43:13.373Z,98199.03
2022-08-03T13:45:40.770Z,98193.03
2022-08-03T13:48:08.004Z,98196.31
2022-08-03T13:50:37.605Z,98196.25
2022-08-03T13:53:08.732Z,98195.91
2022-08-03T13:55:36.048Z,98192.09
2022-08-03T13:58:07.504Z,98185.06
2022-08-03T14:00:35.326Z,98183.91
2022-08-03T14:03:12.241Z,98188.53
2022-08-03T14:05:43.227Z,98184.53
2022-08-03T14:08:11.420Z,98184.75
2022-08-03T14:10:42.592Z,98180.94
2022-08-03T14:13:16.627Z,98185.34
2022-08-03T14:15:50.942Z,98180.03
2022-08-03T14:18:29.190Z,98179.56
2022-08-03T14:21:06.729Z,98174.72
2022-08-03T14:23:37.938Z,98173.59
2022-08-03T14:26:09.606Z,98178.75
2022-08-03T14:28:37.091Z,98171.34
2022-08-03T14:31:08.234Z,98171.91
2022-08-03T14:33:42.982Z,98174.53
2022-08-03T14:36:10.186Z,98176.53
2022-08-03T14:38:37.401Z,98164.06
2022-08-03T14:41:05.000Z,98159.88
2022-08-03T14:43:34.017Z,98164.22
2022-08-03T14:46:01.728Z,98171.44
2022-08-03T14:50:29.465Z,98170.84
2022-08-03T14:51:16.544Z,98160.22
2022-08-03T14:53:44.049Z,98160.09
2022-08-03T14:56:11.300Z,98156.81
2022-08-03T14:58:38.802Z,98162.72
2022-08-03T15:02:06.230Z,98155.03
2022-08-03T15:03:54.778Z,98163.59
2022-08-03T15:06:22.240Z,98148.97
2022-08-03T15:09:06.267Z,98160.84
2022-08-03T15:11:37.521Z,98161.94
2022-08-03T15:14:09.000Z,98159.72
2022-08-03T15:16:38.107Z,98154.56
2022-08-03T15:19:59.585Z,98160.94
2022-08-03T15:21:53.572Z,98157.53
2022-08-03T15:24:21.100Z,98148.53
2022-08-03T15:26:48.313Z,98146.41
2022-08-03T15:30:06.901Z,98145.66
2022-08-03T15:32:09.156Z,98147.00
2022-08-03T15:34:36.962Z,98150.44
2022-08-03T15:37:16.255Z,98146.84
2022-08-03T15:40:00.830Z,98145.50
2022-08-03T15:42:30.346Z,98145.50
2022-08-03T15:44:57.763Z,98146.69
2022-08-03T15:47:25.710Z,98145.59
2022-08-03T15:49:55.768Z,98145.63
2022-08-03T15:52:23.162Z,98141.22
2022-08-03T15:54:50.417Z,98136.94
2022-08-03T15:57:17.959Z,98135.03
2022-08-03T15:59:45.234Z,98136.19
2022-08-03T16:02:12.481Z,98132.75
2022-08-03T16:04:39.948Z,98131.34
2022-08-03T16:07:07.201Z,98128.88
2022-08-03T16:09:43.132Z,98126.44
2022-08-03T16:12:16.426Z,98124.19
2022-08-03T16:14:53.821Z,98117.03
2022-08-03T16:17:22.631Z,98115.88
2022-08-03T16:19:54.722Z,98111.91
2022-08-03T16:22:24.065Z,98118.56
2022-08-03T16:24:53.473Z,98114.38
2022-08-03T16:27:55.787Z,98110.72
2022-08-03T16:30:12.714Z,98112.53
2022-08-03T16:32:40.004Z,98108.66
2022-08-03T16:35:08.710Z,98110.41
2022-08-03T16:37:38.506Z,98108.09
2022-08-03T16:40:17.376Z,98111.25
2022-08-03T16:42:47.611Z,98106.72
2022-08-03T16:45:15.013Z,98113.06
2022-08-03T16:47:42.308Z,98108.97
2022-08-03T16:50:15.761Z,98109.34
2022-08-03T16:52:47.370Z,98112.97
2022-08-03T16:55:18.369Z,98108.75
2022-08-03T16:57:58.688Z,98118.13
2022-08-03T17:00:33.815Z,98114.50
2022-08-03T17:03:18.642Z,98119.78
2022-08-03T17:05:49.925Z,98122.00
2022-08-03T17:08:18.924Z,98121.06
2022-08-03T17:10:53.866Z,98125.88
2022-08-03T17:13:22.861Z,98126.69
2022-08-03T17:15:58.067Z,98131.56
2022-08-03T17:18:37.523Z,98127.81
2022-08-03T17:21:11.309Z,98129.53
2022-08-03T17:23:50.127Z,98126.81
2022-08-03T17:26:22.285Z,98132.53
2022-08-03T17:28:58.094Z,98134.50
2022-08-03T17:31:31.605Z,98130.91
2022-08-03T17:34:04.625Z,98128.97
2022-08-03T17:37:03.111Z,98144.63
2022-08-03T17:39:42.136Z,98144.44
2022-08-03T17:42:30.959Z,98146.91
2022-08-03T17:45:03.790Z,98146.22
2022-08-03T17:47:42.087Z,98148.59
2022-08-03T17:50:24.436Z,98149.56
2022-08-03T17:53:15.355Z,98155.84
2022-08-03T17:56:44.537Z,98156.03
2022-08-03T17:59:57.829Z,98156.13
2022-08-03T18:03:11.168Z,98149.03
2022-08-03T18:06:10.846Z,98155.94
2022-08-03T18:08:51.315Z,98155.66
2022-08-03T18:11:35.694Z,98157.41
2022-08-03T18:14:23.917Z,98155.78
2022-08-03T18:17:03.308Z,98155.44
2022-08-03T18:20:02.713Z,98159.41
2022-08-03T18:22:27.030Z,98163.84
2022-08-03T18:24:56.189Z,98156.63
2022-08-03T18:27:25.150Z,98161.00
2022-08-03T18:30:15.359Z,98165.56
2022-08-03T18:33:01.125Z,98164.75
2022-08-03T18:35:53.074Z,98171.78
2022-08-03T18:38:23.784Z,98177.19
2022-08-03T18:40:51.810Z,98168.72
2022-08-03T18:43:21.123Z,98176.53
2022-08-03T18:46:45.468Z,98173.25
2022-08-03T18:49:52.653Z,98184.19
2022-08-03T18:52:46.071Z,98186.84
2022-08-03T18:55:35.476Z,98184.78
2022-08-03T18:58:17.913Z,98187.69
2022-08-03T19:02:00.361Z,98197.34
2022-08-03T19:04:15.549Z,98191.56
2022-08-03T19:06:48.302Z,98195.06
2022-08-03T19:09:32.845Z,98203.25
2022-08-03T19:12:12.335Z,98200.75
2022-08-03T19:15:00.265Z,98203.66
2022-08-03T19:17:32.355Z,98204.06
2022-08-03T19:20:04.061Z,98212.50
2022-08-03T19:22:33.624Z,98210.22
2022-08-03T19:25:03.939Z,98206.28
2022-08-03T19:27:33.191Z,98204.22
2022-08-03T19:30:19.799Z,98205.19
2022-08-03T19:32:55.082Z,98203.34
2022-08-03T19:35:51.595Z,98207.84
2022-08-03T19:38:11.448Z,98213.97
2022-08-03T19:40:44.442Z,98207.34
2022-08-03T19:43:53.856Z,98214.28
2022-08-03T19:46:31.716Z,98217.97
2022-08-03T19:49:15.069Z,98215.00
2022-08-03T19:52:01.138Z,98213.69
2022-08-03T19:54:54.083Z,98207.81
2022-08-03T19:57:27.336Z,98205.69
2022-08-03T19:59:57.260Z,98205.19
2022-08-03T20:02:27.103Z,98198.75
2022-08-03T20:04:59.938Z,98199.09
2022-08-03T20:07:32.025Z,98203.19
2022-08-03T20:10:02.595Z,98208.25
2022-08-03T20:12:34.395Z,98205.34
2022-08-03T20:15:07.901Z,98203.66
2022-08-03T20:17:57.068Z,98197.91
2022-08-03T20:20:34.314Z,98207.50
2022-08-03T20:23:07.540Z,98205.22
2022-08-03T20:25:48.767Z,98203.94
2022-08-03T20:29:01.078Z,98203.25
2022-08-03T20:31:37.691Z,98201.75
2022-08-03T20:34:06.586Z,98197.56
2022-08-03T20:36:33.973Z,98197.28
2022-08-03T20:39:02.321Z,98205.09
2022-08-03T20:41:35.498Z,98201.63
2022-08-03T20:44:04.583Z,98202.00
2022-08-03T20:46:44.119Z,98209.34
2022-08-03T20:49:22.944Z,98210.75
2022-08-03T20:51:53.321Z,98204.78
2022-08-03T20:54:30.971Z,98200.63
2022-08-03T20:57:14.274Z,98201.00
2022-08-03T20:59:50.369Z,98204.91
2022-08-03T21:02:29.976Z,98205.25
2022-08-03T21:05:03.702Z,98213.25
2022-08-03T21:08:06.418Z,98210.06
2022-08-03T21:10:38.420Z,98214.75
2022-08-03T21:13:30.390Z,98209.28
2022-08-03T21:16:11.969Z,98211.13
2022-08-03T21:18:50.586Z,98208.69
2022-08-03T21:21:22.504Z,98209.47
2022-08-03T21:23:55.277Z,98213.84
2022-08-03T21:26:25.502Z,98216.06
2022-08-03T21:28:56.756Z,98218.63
2022-08-03T21:31:26.553Z,98226.50
2022-08-03T21:34:01.506Z,98220.75
2022-08-03T21:36:34.644Z,98222.91
2022-08-03T21:39:07.025Z,98229.44
2022-08-03T21:41:36.393Z,98230.53
2022-08-03T21:44:05.626Z,98225.59
2022-08-03T21:46:39.698Z,98222.25
2022-08-03T21:50:02.660Z,98235.03
2022-08-03T21:51:59.838Z,98233.41
2022-08-03T21:54:49.129Z,98227.50
2022-08-03T21:57:25.676Z,98222.44
2022-08-03T22:00:07.164Z,98226.00
2022-08-03T22:02:35.801Z,98226.09
2022-08-03T22:05:04.764Z,98224.59
2022-08-03T22:07:34.608Z,98220.47
2022-08-03T22:10:07.623Z,98222.69
2022-08-03T22:12:35.965Z,98227.06
2022-08-03T22:15:08.481Z,98225.53
2022-08-03T22:17:54.796Z,98224.44
2022-08-03T22:20:25.276Z,98225.25
2022-08-03T22:22:57.059Z,98226.44
2022-08-03T22:25:34.325Z,98234.97
2022-08-03T22:28:09.576Z,98238.16
2022-08-03T22:30:38.918Z,98227.53
2022-08-03T22:33:11.145Z,98228.88
2022-08-03T22:35:50.419Z,98223.41
2022-08-03T22:38:19.214Z,98230.09
2022-08-03T22:40:50.994Z,98233.78
2022-08-03T22:43:26.823Z,98228.97
2022-08-03T22:46:09.803Z,98228.47
2022-08-03T22:48:40.761Z,98224.66
2022-08-03T22:51:09.963Z,98225.78
2022-08-03T22:53:39.150Z,98225.16
2022-08-03T22:56:07.809Z,98228.97
2022-08-03T22:58:35.071Z,98225.19
2022-08-03T23:01:14.975Z,98223.38
2022-08-03T23:03:59.163Z,98213.56
2022-08-03T23:06:35.699Z,98217.88
2022-08-03T23:09:11.128Z,98219.50
2022-08-03T23:11:46.029Z,98218.22
2022-08-03T23:14:18.588Z,98218.28
2022-08-03T23:16:53.165Z,98220.75
2022-08-03T23:19:26.242Z,98222.03
2022-08-03T23:22:02.239Z,98212.06
2022-08-03T23:24:38.579Z,98221.88
2022-08-03T23:27:09.258Z,98217.56
2022-08-03T23:29:39.742Z,98216.53
2022-08-03T23:32:10.124Z,98216.22
2022-08-03T23:34:59.501Z,98204.25
2022-08-03T23:37:27.054Z,98214.59
2022-08-03T23:39:57.458Z,98207.81
2022-08-03T23:42:25.728Z,98207.97
2022-08-03T23:44:59.504Z,98208.78
2022-08-03T23:47:46.879Z,98203.31
2022-08-03T23:50:15.432Z,98212.28
2022-08-03T23:52:56.437Z,98206.31
2022-08-03T23:56:04.059Z,98204.69
2022-08-03T23:59:01.202Z,98211.53
